• Join FlightAware (Why Join?)
  • Login
  • US Flag 
12:15AM EDT


 

Airport Tracker/Info


-or-


 

Live Flight TrackerFlight Track Log ✈ AFL150 ✈ 06-Jan-2014 ✈ UUEE / SVO - MUHA / HAV

Flight Track Log - Related Links

Times and Time Zones

All times are in EST time to prevent confusion due to time zone crossing. See the AFL150 flight status page for this flight to view local times or setup timezone preferences in your user account.

Time Position Orientation Groundspeed Altitude Reporting Facility
EST Latitude Longitude Course Direction KTS MPH feet Rate Location/Type
05:54AM 56.0803 37.0399 297° West  Level FlightAware Approximate
05:55AM 56.1339 36.8491 297° West  Level FlightAware Approximate
05:56AM 56.1873 36.6578 297° West  Level FlightAware Approximate
05:57AM 56.2403 36.4660 297° West  Level FlightAware Approximate
05:58AM 56.2931 36.2736 296° West  Level FlightAware Approximate
05:59AM 56.3456 36.0807 296° West  Level FlightAware Approximate
06:00AM 56.3978 35.8873 296° West  Level FlightAware Approximate
06:01AM 56.4496 35.6933 296° West  Level FlightAware Approximate
06:02AM 56.5012 35.4989 296° West  Level FlightAware Approximate
06:03AM 56.5524 35.3038 296° West  Level FlightAware Approximate
06:04AM 56.6034 35.1083 295° West  Level FlightAware Approximate
06:05AM 56.6540 34.9123 295° West  Level FlightAware Approximate
06:06AM 56.7044 34.7157 295° West  Level FlightAware Approximate
06:07AM 56.7544 34.5186 295° West  Level FlightAware Approximate
06:08AM 56.8041 34.3209 295° West  Level FlightAware Approximate
06:09AM 56.8535 34.1227 295° West  Level FlightAware Approximate
06:10AM 56.9202 33.9420 293° West  Level Estimated
06:11AM 56.9659 33.7403 293° West  Level FlightAware Approximate
06:12AM 57.0114 33.5382 293° West  Level FlightAware Approximate
06:13AM 57.0565 33.3355 292° West  Level FlightAware Approximate
06:14AM 57.1013 33.1324 292° West  Level FlightAware Approximate
06:15AM 57.1458 32.9288 292° West  Level FlightAware Approximate
06:16AM 57.1899 32.7247 292° West  Level FlightAware Approximate
06:17AM 57.2337 32.5200 292° West  Level FlightAware Approximate
06:18AM 57.2772 32.3149 291° West  Level FlightAware Approximate
06:19AM 57.3203 32.1094 291° West  Level FlightAware Approximate
06:20AM 57.3631 31.9033 291° West  Level FlightAware Approximate
06:21AM 57.4056 31.6968 291° West  Level FlightAware Approximate
06:22AM 57.4477 31.4898 291° West  Level FlightAware Approximate
06:23AM 57.4895 31.2823 291° West  Level FlightAware Approximate
06:24AM 57.5309 31.0743 290° West  Level FlightAware Approximate
06:25AM 57.5720 30.8659 290° West  Level FlightAware Approximate
06:26AM 57.6128 30.6570 290° West  Level FlightAware Approximate
06:26AM 56.3996 32.9297 290° West 436 502 36,000  Level FlightAware ADS-B (EVDA / DGP)
06:34AM 56.6639 29.4719 302° West 440 506 36,000  Level FlightAware ADS-B (EVDA / DGP)
06:34AM 56.6794 29.2175 276° West 439 505 36,000  Level FlightAware ADS-B (EVDA / DGP)
06:35AM 56.6913 29.0168 276° West 437 503 36,000  Level FlightAware ADS-B (EVDA / DGP)
06:36AM 56.6956 28.9419 276° West 439 505 36,000  Level FlightAware ADS-B (EVDA / DGP)
06:38AM 56.7178 28.5527 276° West 440 506 36,000  Level FlightAware ADS-B (EVDA / DGP)
06:38AM 56.7266 28.3907 276° West 440 506 36,000  Level FlightAware ADS-B (EVDA / DGP)
06:39AM 56.7346 28.2393 276° West 440 506 36,000  Level FlightAware ADS-B (EVDA / DGP)
06:40AM 56.7408 28.1215 276° West 442 509 36,000  Level FlightAware ADS-B (EVDA / DGP)
06:41AM 56.7524 27.8897 275° West 443 510 36,000  Level FlightAware ADS-B (EVDA / DGP)
06:41AM 56.7582 27.7800 276° West 443 510 36,000  Level FlightAware ADS-B (EVDA / DGP)
06:42AM 56.7640 27.6710 276° West 443 510 36,000  Level FlightAware ADS-B (EVDA / DGP)
06:42AM 56.7698 27.5548 275° West 443 510 36,000  Level FlightAware ADS-B (EVDA / DGP)
06:43AM 56.7669 27.3374 269° West 441 507 36,000  Level FlightAware ADS-B (EVDA / DGP)
06:44AM 56.7644 27.2227 268° West 439 505 36,000  Level FlightAware ADS-B (EVDA / DGP)
06:44AM 56.7617 27.1075 268° West 438 504 36,000  Level FlightAware ADS-B (EVDA / DGP)
06:45AM 56.7556 26.8744 267° West 439 505 36,000  Level FlightAware ADS-B (EVDA / DGP)
06:46AM 56.7495 26.6473 267° West 441 507 36,000  Level FlightAware ADS-B (EVDA / DGP)
06:47AM 56.7431 26.4276 267° West 440 506 36,000  Level FlightAware ADS-B (EVDA / DGP)
06:48AM 56.7362 26.2037 267° West 437 503 36,000  Level FlightAware ADS-B (EVDA / DGP)
06:49AM 56.7292 25.9850 267° West 437 503 36,000  Level FlightAware ADS-B (EVDA / DGP)
06:50AM 56.7214 25.7585 267° West 441 507 36,000  Level FlightAware ADS-B (EVDA / DGP)
06:51AM 56.7128 25.5231 266° West 443 510 36,000  Level FlightAware ADS-B (EVDA / DGP)
06:52AM 56.7043 25.3012 266° West 442 509 36,000  Level FlightAware ADS-B (EVDA / DGP)
06:53AM 56.6956 25.0805 266° West 439 505 36,000  Level FlightAware ADS-B (EVDA / DGP)
06:54AM 56.6860 24.8497 266° West 438 504 36,000  Level FlightAware ADS-B (EVDA / DGP)
06:55AM 56.6766 24.6342 266° West 436 502 36,000  Level FlightAware ADS-B (EVDA / DGP)
06:56AM 56.6663 24.4052 265° West 436 502 36,000  Level FlightAware ADS-B (EVDA / DGP)
06:57AM 56.6565 24.1991 265° West 436 502 36,000  Level FlightAware ADS-B (EVDA / DGP)
06:58AM 56.6448 23.9585 265° West 433 498 36,000  Level FlightAware ADS-B (EVDA / DGP)
06:59AM 56.6335 23.7357 265° West 426 490 36,000  Level FlightAware ADS-B (EVDA / DGP)
07:00AM 56.6245 23.5653 265° West 421 484 36,000  Level FlightAware ADS-B (EVDA / DGP)
07:01AM 56.6107 23.3101 265° West 420 483 36,000  Level FlightAware ADS-B (EVDA / DGP)
07:02AM 56.5992 23.1042 264° West 411 473 36,000  Level FlightAware ADS-B (EVDA / DGP)
07:03AM 56.5873 22.8967 264° West 407 468 36,000  Level FlightAware ADS-B (EVDA / DGP)
07:05AM 56.5743 22.6794 264° West 407 468 36,000  Level FlightAware ADS-B (EVDA / DGP)
07:05AM 56.5644 22.5171 264° West 408 470 36,000  Level FlightAware ADS-B (SVMI / CCS)
07:06AM 56.5636 22.5035 264° West 412 474 36,000  Level FlightAware ADS-B (EVDA / DGP)
07:08AM 56.5343 22.0407 264° West 423 487 36,000  Level FlightAware ADS-B (EVDA / DGP)
07:08AM 56.5297 21.9720 263° West 422 486 36,000  Level FlightAware ADS-B (EVDA / DGP)
07:09AM 56.5129 21.7224 263° West 421 484 36,000  Level FlightAware ADS-B (EVDA / DGP)
07:10AM 56.5052 21.6109 263° West 421 484 36,000  Level FlightAware ADS-B (EVDA / DGP)
07:10AM 56.4938 21.4474 263° West 420 483 36,000  Level FlightAware ADS-B (EVDA / DGP)
07:28AM 56.5273 17.8098 291° West 413 475 36,000  Level FlightAware ADS-B (ESMN)
07:29AM 56.5294 17.6676 272° West 411 473 36,000  Level FlightAware ADS-B (ESMN)
07:30AM 56.5312 17.5337 271° West 407 468 36,000  Level FlightAware ADS-B (ESMN)
07:30AM 56.5329 17.4026 271° West 404 465 36,000  Level FlightAware ADS-B (ESMN)
07:31AM 56.5345 17.2596 271° West 403 464 36,000  Level FlightAware ADS-B (ESMN)
07:31AM 56.5358 17.1372 271° West 401 461 36,000  Level FlightAware ADS-B (ESMN)
07:32AM 56.5371 16.9980 271° West 403 464 36,000  Level FlightAware ADS-B (ESMN)
07:33AM 56.5382 16.8594 271° West 394 453 36,000  Level FlightAware ADS-B (ESMN)
07:34AM 56.5391 16.7383 271° West 394 453 36,000  Level FlightAware ADS-B (ESMN)
07:34AM 56.5400 16.5961 271° West 394 453 36,000  Level FlightAware ADS-B (ESMN)
07:35AM 56.5406 16.4775 271° West 394 453 36,000  Level FlightAware ADS-B (ESMN)
07:36AM 56.5411 16.3452 270° West 396 456 36,000  Level FlightAware ADS-B (ESMN)
07:36AM 56.5416 16.2107 270° West 399 459 36,000  Level FlightAware ADS-B (ESMN)
07:37AM 56.5417 16.0743 270° West 403 464 36,000  Level FlightAware ADS-B (ESMN)
07:38AM 56.5419 15.9378 270° West 407 468 36,000  Level FlightAware ADS-B (ESMN)
07:38AM 56.5419 15.7946 270° West 409 471 36,000  Level FlightAware ADS-B (ESMN)
07:39AM 56.5417 15.6605 270° West 409 471 36,000  Level FlightAware ADS-B (ESMN)
07:39AM 56.5415 15.5326 270° West 407 468 36,000  Level FlightAware ADS-B (ESMN)
07:40AM 56.5409 15.3855 270° West 407 468 36,000  Level FlightAware ADS-B (ESMN)
07:41AM 56.5403 15.2584 270° West 407 468 36,000  Level FlightAware ADS-B (ESMN)
07:41AM 56.5395 15.1185 269° West 408 470 36,000  Level FlightAware ADS-B (ESMN)
07:42AM 56.5385 14.9774 269° West 409 471 36,000  Level FlightAware ADS-B (ESMN)
07:43AM 56.5375 14.8435 269° West 412 474 36,000  Level FlightAware ADS-B (ESMN)
07:44AM 56.5362 14.7010 269° West 414 476 36,000  Level FlightAware ADS-B (ESMN)
07:44AM 56.5349 14.5692 269° West 413 475 36,000  Level FlightAware ADS-B (ESMN)
07:45AM 56.5333 14.4265 269° West 409 471 36,000  Level FlightAware ADS-B (ESMN)
07:46AM 56.5315 14.2886 269° West 405 466 36,000  Level FlightAware ADS-B (ESMN)
07:46AM 56.5296 14.1483 269° West 401 461 36,000  Level FlightAware ADS-B (ESMN)
07:47AM 56.5276 14.0149 269° West 397 457 36,000  Level FlightAware ADS-B (ESMN)
07:48AM 56.5256 13.8858 268° West 396 456 36,000  Level FlightAware ADS-B (ESMN)
07:49AM 56.5213 13.6326 268° West 391 450 36,000  Level FlightAware ADS-B (ESMN)
07:49AM 56.5189 13.5056 268° West 389 448 36,000  Level FlightAware ADS-B (ESMN)
07:50AM 56.5161 13.3674 268° West 391 450 36,000  Level FlightAware ADS-B (ESMN)
07:51AM 56.5134 13.2385 268° West 392 451 36,000  Level FlightAware ADS-B (ESMN)
07:52AM 56.5105 13.1056 268° West 389 448 36,000  Level FlightAware ADS-B (ESMN)
07:52AM 56.5074 12.9674 268° West 387 445 36,000  Level FlightAware ADS-B (ESMN)
07:53AM 56.5042 12.8409 268° West 387 445 36,000  Level FlightAware ADS-B (ESMN)
07:54AM 56.5010 12.7102 267° West 387 445 36,000  Level FlightAware ADS-B (ESMN)
07:54AM 56.4976 12.5815 267° West 388 447 36,000  Level FlightAware ADS-B (ESMN)
07:55AM 56.4942 12.4562 267° West 388 447 36,000  Level FlightAware ADS-B (ESMN)
07:56AM 56.4904 12.3221 267° West 388 447 36,000  Level FlightAware ADS-B (ESMN)
07:56AM 56.4865 12.1902 267° West 389 448 36,000  Level FlightAware ADS-B (ESMN)
07:57AM 56.4826 12.0628 267° West 388 447 36,000  Level FlightAware ADS-B (ESMN)
07:58AM 56.4785 11.9271 267° West 388 447 36,000  Level FlightAware ADS-B (ESMN)
07:58AM 56.4744 11.8036 267° West 390 449 36,000  Level FlightAware ADS-B (ESMN)
07:59AM 56.4676 11.6043 267° West 393 452 36,000  Level FlightAware ADS-B (ESMN)
08:01AM 56.4553 11.2619 266° West 393 452 36,000  Level FlightAware ADS-B (ESMN)
08:02AM 56.4478 11.0641 266° West 393 452 36,000  Level FlightAware ADS-B (ESMN)
08:03AM 56.4433 10.9511 266° West 394 453 36,000  Level FlightAware ADS-B (EFMA / MHQ)
08:04AM 56.4332 10.7057 266° West 399 459 36,000  Level FlightAware ADS-B (ESMN)
08:05AM 56.4238 10.4871 266° West 403 464 36,000  Level FlightAware ADS-B (ESMN)
08:13AM 56.3474 8.8883 284° West 407 468 36,000  Level FlightAware ADS-B (ESMN)
08:14AM 56.3484 8.7464 271° West 408 470 36,000  Level FlightAware ADS-B (ESMN)
08:14AM 56.3490 8.6084 271° West 408 470 36,000  Level FlightAware ADS-B (ESMN)
08:15AM 56.3495 8.4017 270° West 410 472 36,000  Level FlightAware ADS-B (ESMN)
08:16AM 56.3497 8.2664 270° West 406 467 36,000  Level FlightAware ADS-B (ESMN)
08:20AM 56.3476 7.5013 283° West 394 453 36,000  Level FlightAware ADS-B (ESMN)
08:30AM 56.3195 5.4794 281° West 399 459 36,000  Level FlightAware ADS-B (EGPD / ABZ)
08:32AM 56.3084 5.0733 281° West 1 1 36,000  Level FlightAware UK
08:35AM 56.2941 4.5524 282° West 472 543 36,000  Level FlightAware UK
08:35AM 56.2903 4.4295 267° West 468 539 36,000  Level FlightAware UK
08:36AM 56.3046 4.8735 267° West 411 473 36,000  Level FlightAware ADS-B (EGPD / ABZ)
08:37AM 56.2830 4.1840 267° West 470 541 36,000  Level FlightAware UK
08:37AM 56.2794 4.0610 267° West 468 539 36,000  Level FlightAware UK
08:38AM 56.2761 3.9580 267° West 470 541 36,000  Level FlightAware UK
08:38AM 56.2754 3.9265 267° West 412 474 36,000  Level FlightAware ADS-B (EGPD / ABZ)
08:38AM 56.2714 3.8122 266° West 413 475 36,000  Level FlightAware ADS-B (EGPD / ABZ)
08:39AM 56.2642 3.6303 266° West 470 541 36,000  Level FlightAware UK
08:40AM 56.2600 3.5085 266° West 468 539 36,000  Level FlightAware UK
08:41AM 56.2527 3.3254 266° West 468 539 36,000  Level FlightAware UK
08:41AM 56.2539 3.3482 266° West 412 474 36,000  Level FlightAware ADS-B (EGPD / ABZ)
08:42AM 56.2466 3.1636 266° West 413 475 36,000  Level FlightAware ADS-B (EGPD / ABZ)
08:42AM 56.2394 2.9912 266° West 412 474 36,000  Level FlightAware ADS-B (EGPD / ABZ)
08:43AM 56.2385 2.9786 266° West 472 543 36,000  Level FlightAware UK
08:43AM 56.2343 2.8763 266° West 472 543 36,000  Level FlightAware UK
08:44AM 56.2296 2.7740 265° West 474 545 36,000  Level FlightAware UK
08:44AM 56.2233 2.6316 266° West 468 539 36,000  Level FlightAware UK
08:45AM 56.2177 2.5109 265° West 466 536 36,000  Level FlightAware UK
08:45AM 56.2130 2.4105 265° West 468 539 36,000  Level FlightAware UK
08:46AM 56.2074 2.2907 265° West 464 534 36,000  Level FlightAware UK
08:47AM 56.2016 2.1722 265° West 462 532 36,000  Level FlightAware UK
08:47AM 56.1988 2.1108 265° West 405 466 36,000  Level FlightAware ADS-B (EGPD / ABZ)
08:47AM 56.1936 2.0049 265° West 404 465 36,000  Level FlightAware ADS-B (EGPD / ABZ)
08:48AM 56.1887 1.9072 265° West 403 464 36,000  Level FlightAware ADS-B (EGPD / ABZ)
08:48AM 56.1831 1.7994 265° West 404 465 36,000  Level FlightAware ADS-B (EGPD / ABZ)
08:49AM 56.1753 1.6510 265° West 407 468 36,000  Level FlightAware ADS-B (EGPD / ABZ)
08:50AM 56.1669 1.4953 265° West 407 468 36,000  Level FlightAware ADS-B (EGPD / ABZ)
08:50AM 56.1612 1.3920 264° West 406 467 36,000  Level FlightAware ADS-B (EGPD / ABZ)
08:51AM 56.1541 1.2650 264° West 405 466 36,000 360 Level FlightAware ADS-B (EGPD / ABZ)
08:52AM 56.1439 1.0873 264° West 406 467 36,600 480 Climbing FlightAware ADS-B (EGPD / ABZ)
08:52AM 56.1375 0.9794 264° West 411 473 36,700  Climbing FlightAware ADS-B (EGNT / NCL)
08:53AM 56.1370 0.9716 264° West 466 536 36,600 180 Descending FlightAware UK
08:53AM 56.1306 0.8684 264° West 468 539 36,800 600 Climbing FlightAware UK
08:53AM 56.1292 0.8400 264° West 420 483 37,000 540 Climbing FlightAware ADS-B (EGNT / NCL)
08:53AM 56.1292 0.8400 264° West 421 484 37,000  Level FlightAware ADS-B (EGNT / NCL)
08:54AM 56.1197 0.6819 264° West 422 486 37,000  Level FlightAware ADS-B (EGPD / ABZ)
08:54AM 56.1137 0.5834 264° West 420 483 37,000  Level FlightAware ADS-B (EGPF / GLA)
08:55AM 56.1061 0.4620 264° West 415 478 37,000  Level FlightAware ADS-B (EGPD / ABZ)
08:55AM 56.0995 0.3580 264° West 413 475 37,000  Level FlightAware ADS-B (EGPD / ABZ)
08:56AM 56.0902 0.2154 263° West 412 474 37,000  Level FlightAware ADS-B (EGPD / ABZ)
08:57AM 56.0821 0.0928 263° West 466 536 37,000  Level FlightAware UK
08:57AM 56.0804 0.0662 263° West 413 475 37,000  Level FlightAware ADS-B (EGNT / NCL)
08:57AM 56.0735 -0.0367 263° West 412 474 37,000  Level FlightAware ADS-B (EGPD / ABZ)
08:58AM 56.0633 -0.1864 263° West 411 473 37,000  Level FlightAware ADS-B (EGPF / GLA)
08:59AM 56.0547 -0.3110 263° West 409 471 37,000  Level FlightAware ADS-B (EGPD / ABZ)
09:00AM 56.0441 -0.4618 263° West 407 468 37,000  Level FlightAware ADS-B (EGPH / EDI)
09:00AM 56.0355 -0.5815 263° West 405 466 37,000  Level FlightAware ADS-B (EGPH / EDI)
09:01AM 56.0275 -0.6926 263° West 407 468 37,000  Level FlightAware ADS-B (EGAA / BFS)
09:01AM 56.0197 -0.7991 263° West 409 471 37,000  Level FlightAware ADS-B (EGNT / NCL)
09:02AM 56.0123 -0.8980 262° West 410 472 37,000  Level FlightAware ADS-B (EGAA / BFS)
09:02AM 56.0092 -0.9394 262° West 409 471 37,000  Level FlightAware ADS-B (EGPD / ABZ)
09:02AM 56.0027 -1.0265 262° West 411 473 37,000  Level FlightAware ADS-B (EGAA / BFS)
09:03AM 56.0000 -1.0616 262° West 410 472 37,000  Level FlightAware ADS-B (EGPD / ABZ)
09:03AM 55.9927 -1.1580 262° West 411 473 37,000  Level FlightAware ADS-B (EGAA / BFS)
09:03AM 55.9894 -1.2016 262° West 411 473 37,000  Level FlightAware ADS-B (EGAA / BFS)
09:04AM 55.9789 -1.3276 262° West 407 468 37,000  Level FlightAware ADS-B (EGPD / ABZ)
09:04AM 55.9731 -1.3796 259° West 407 468 37,000  Level FlightAware ADS-B (EGPN / DND)
09:05AM 55.9646 -1.4523 258° West 407 468 37,000  Level FlightAware ADS-B (EGPD / ABZ)
09:05AM 55.9517 -1.5666 259° West 409 471 37,000  Level FlightAware ADS-B (EGPD / ABZ)
09:06AM 55.9409 -1.6653 259° West 411 473 37,000  Level FlightAware ADS-B (EGPD / ABZ)
09:06AM 55.9273 -1.7868 259° West 411 473 37,000  Level FlightAware ADS-B (EGPN / DND)
09:07AM 55.9253 -1.8051 259° West 411 473 37,000  Level FlightAware ADS-B
09:07AM 55.9153 -1.8883 258° West 406 467 37,000  Level FlightAware ADS-B (EGPD / ABZ)
09:07AM 55.9044 -1.9353 248° West 403 464 37,000  Level FlightAware ADS-B (EGPH / EDI)
09:07AM 55.8999 -1.9495 241° Southwest 400 460 37,000  Level FlightAware ADS-B (EGPD / ABZ)
09:08AM 55.8724 -2.0347 240° Southwest 406 467 37,000  Level FlightAware ADS-B (EGNT / NCL)
09:08AM 55.8601 -2.0738 241° Southwest 403 464 37,000  Level FlightAware ADS-B (EGPD / ABZ)
09:08AM 55.8335 -2.1571 240° Southwest 411 473 37,000  Level FlightAware ADS-B (EGNT / NCL)
09:09AM 55.8016 -2.2584 241° Southwest 414 476 37,000  Level FlightAware ADS-B (EGPF / GLA)
09:09AM 55.7919 -2.2895 241° Southwest 410 472 37,000  Level FlightAware ADS-B (EGNR / CEG)
09:09AM 55.7818 -2.3217 241° Southwest 411 473 37,000  Level FlightAware ADS-B (EGPD / ABZ)
09:09AM 55.7788 -2.3312 241° Southwest 412 474 37,000  Level FlightAware ADS-B (EGPD / ABZ)
09:10AM 55.7510 -2.4193 241° Southwest 413 475 37,000  Level FlightAware ADS-B (EGAA / BFS)
09:10AM 55.7401 -2.4537 241° Southwest 413 475 37,000  Level FlightAware ADS-B (EGPD / ABZ)
09:10AM 55.7119 -2.5427 241° Southwest 416 479 37,000  Level FlightAware ADS-B (EGAA / BFS)
09:11AM 55.6962 -2.5919 240° Southwest 411 473 37,000  Level FlightAware ADS-B (EGPD / ABZ)
09:11AM 55.6670 -2.6832 241° Southwest 417 480 37,000  Level FlightAware ADS-B (EGPN / DND)
09:12AM 55.6388 -2.7710 240° Southwest 418 481 37,000  Level FlightAware ADS-B (EGPH / EDI)
09:12AM 55.6109 -2.8572 240° Southwest 417 480 37,000  Level FlightAware ADS-B (EGPN / DND)
09:13AM 55.5802 -2.9521 240° Southwest 417 480 37,000  Level FlightAware ADS-B (EGPN / DND)
09:13AM 55.5531 -3.0358 240° Southwest 418 481 37,000  Level FlightAware ADS-B (EGNT / NCL)
09:14AM 55.5163 -3.1491 240° Southwest 418 481 37,000  Level FlightAware ADS-B (EGPH / EDI)
09:14AM 55.4826 -3.2519 240° Southwest 418 481 37,000  Level FlightAware ADS-B (EGPF / GLA)
09:15AM 55.4458 -3.3640 240° Southwest 422 486 37,000  Level FlightAware ADS-B (EGPN / DND)
09:16AM 55.4194 -3.4440 240° Southwest 421 484 37,000  Level FlightAware ADS-B
09:16AM 55.3831 -3.5536 240° Southwest 418 481 37,000  Level FlightAware ADS-B (EGAA / BFS)
09:17AM 55.3465 -3.6635 240° Southwest 419 482 37,000  Level FlightAware ADS-B (EGPN / DND)
09:17AM 55.3163 -3.7535 240° Southwest 417 480 37,000  Level FlightAware ADS-B (EGPF / GLA)
09:18AM 55.2775 -3.8693 240° Southwest 416 479 37,000  Level FlightAware ADS-B (EGPF / GLA)
09:18AM 55.2451 -3.9655 239° Southwest 417 480 37,000  Level FlightAware ADS-B (EGPN / DND)
09:19AM 55.2205 -4.0383 239° Southwest 415 478 37,000  Level FlightAware ADS-B
09:20AM 55.1810 -4.1544 239° Southwest 412 474 37,000  Level FlightAware ADS-B (EGPN / DND)
09:20AM 55.1515 -4.2407 239° Southwest 411 473 37,000  Level FlightAware ADS-B (EGPF / GLA)
09:21AM 55.1221 -4.3266 239° Southwest 414 476 37,000  Level FlightAware ADS-B (EGPN / DND)
09:21AM 55.0904 -4.4189 239° Southwest 416 479 37,000  Level FlightAware ADS-B (EGPN / DND)
09:22AM 55.0614 -4.5032 239° Southwest 414 476 37,000  Level FlightAware ADS-B
09:22AM 55.0261 -4.6050 239° Southwest 409 471 37,000  Level FlightAware ADS-B (EGPN / DND)
09:23AM 54.9909 -4.7065 239° Southwest 407 468 37,000  Level FlightAware ADS-B (EGPF / GLA)
09:23AM 54.9541 -4.8117 239° Southwest 410 472 37,000  Level FlightAware ADS-B
09:24AM 54.9229 -4.9008 239° Southwest 410 472 37,000  Level FlightAware ADS-B (EGAA / BFS)
09:25AM 54.8919 -4.9892 239° Southwest 409 471 37,000  Level FlightAware ADS-B (EGPF / GLA)
09:25AM 54.8625 -5.0725 239° Southwest 409 471 37,000  Level FlightAware ADS-B (EGPF / GLA)
09:26AM 54.8300 -5.1643 238° Southwest 406 467 37,000  Level FlightAware ADS-B
09:26AM 54.7926 -5.2693 238° Southwest 404 465 37,000  Level FlightAware ADS-B
09:27AM 54.7550 -5.3745 238° Southwest 405 466 37,000  Level FlightAware ADS-B (EGPG)
09:27AM 54.7248 -5.4588 238° Southwest 405 466 37,000  Level FlightAware ADS-B (EGAE / LDY)
09:28AM 54.6919 -5.5500 238° Southwest 407 468 37,000  Level FlightAware ADS-B
09:29AM 54.6554 -5.6509 238° Southwest 404 465 37,000  Level FlightAware ADS-B (EGAE / LDY)
09:29AM 54.6202 -5.7483 238° Southwest 407 468 37,000  Level FlightAware ADS-B (EGPF / GLA)
09:30AM 54.5889 -5.8347 238° Southwest 406 467 37,000  Level FlightAware ADS-B (EGAA / BFS)
09:30AM 54.5869 -5.8406 240° Southwest 406 467 37,000  Level FlightAware ADS-B
09:30AM 54.5529 -5.9474 241° Southwest 407 468 37,000  Level FlightAware ADS-B (EGPF / GLA)
09:31AM 54.5221 -6.0440 241° Southwest 407 468 37,000  Level FlightAware ADS-B
09:31AM 54.4967 -6.1221 241° Southwest 408 470 37,000  Level FlightAware ADS-B (EGAA / BFS)
09:32AM 54.4648 -6.2191 241° Southwest 402 463 37,000  Level FlightAware ADS-B (EGAE / LDY)
09:32AM 54.4383 -6.2995 240° Southwest 405 466 37,000  Level FlightAware ADS-B
09:33AM 54.4057 -6.3981 240° Southwest 405 466 37,000  Level FlightAware ADS-B (EGAA / BFS)
09:33AM 54.3976 -6.4225 240° Southwest 401 461 37,000  Level FlightAware ADS-B (EGAE / LDY)
09:33AM 54.3789 -6.4788 240° Southwest 401 461 37,000  Level FlightAware ADS-B (EGAE / LDY)
09:34AM 54.3604 -6.5341 240° Southwest 404 465 37,000  Level FlightAware ADS-B (EGAE / LDY)
09:34AM 54.3410 -6.5922 240° Southwest 406 467 37,000  Level FlightAware ADS-B (EGAE / LDY)
09:34AM 54.3220 -6.6491 240° Southwest 406 467 37,000  Level FlightAware ADS-B (EGAE / LDY)
09:35AM 54.2911 -6.7411 240° Southwest 411 473 37,000  Level FlightAware ADS-B (EGAA / BFS)
09:36AM 54.2505 -6.8462 240° Southwest 470 541 37,000  Level FlightAware UK
09:36AM 54.2450 -6.8600 240° Southwest 411 473 37,000  Level FlightAware ADS-B (EGAA / BFS)
09:36AM 54.2118 -6.9348 233° Southwest 410 472 37,000  Level FlightAware ADS-B
09:37AM 54.1766 -7.0139 233° Southwest 410 472 37,000  Level FlightAware ADS-B (EGAA / BFS)
09:37AM 54.1420 -7.0917 233° Southwest 410 472 37,000  Level FlightAware ADS-B (EGGP / LPL)
09:38AM 54.1067 -7.1707 233° Southwest 470 541 37,000  Level FlightAware UK
09:38AM 54.0885 -7.2117 233° Southwest 411 473 37,000  Level FlightAware ADS-B
09:39AM 54.0408 -7.3179 233° Southwest 412 474 37,000  Level FlightAware ADS-B (EGAA / BFS)
09:39AM 54.0037 -7.4003 233° Southwest 417 480 37,000  Level FlightAware ADS-B
09:40AM 53.9644 -7.4875 233° Southwest 425 489 37,000  Level FlightAware ADS-B
09:40AM 53.9268 -7.5703 232° Southwest 426 490 37,000  Level FlightAware ADS-B (EGAE / LDY)
09:41AM 53.8909 -7.6491 232° Southwest 427 491 37,000 -300 Level FlightAware ADS-B
09:41AM 53.8522 -7.7336 232° Southwest 484 557 36,700 -660 Descending FlightAware UK
09:41AM 53.8451 -7.7496 232° Southwest 428 493 36,600 -840 Descending FlightAware ADS-B (EGAA / BFS)
09:42AM 53.8090 -7.8286 232° Southwest 423 487 36,200 -600 Descending FlightAware ADS-B
09:43AM 53.7664 -7.9214 232° Southwest 420 483 36,000 -180 Descending FlightAware ADS-B
09:43AM 53.7248 -8.0112 232° Southwest 416 479 36,000  Level FlightAware ADS-B (EGAA / BFS)
09:43AM 53.7007 -8.0632 232° Southwest 413 475 36,000  Level FlightAware ADS-B (EGAA / BFS)
09:44AM 53.6688 -8.1321 232° Southwest 406 467 36,000  Level FlightAware ADS-B (EGAE / LDY)
09:44AM 53.6454 -8.1823 232° Southwest 405 466 36,000  Level FlightAware ADS-B (EGAE / LDY)
09:45AM 53.6076 -8.2632 232° Southwest 409 471 36,000  Level FlightAware ADS-B (EGAA / BFS)
09:45AM 53.5692 -8.3453 232° Southwest 466 536 36,000  Level FlightAware UK
09:45AM 53.5656 -8.3533 232° Southwest 410 472 36,000  Level FlightAware ADS-B
09:46AM 53.5578 -8.3699 232° Southwest 405 466 36,000  Level FlightAware ADS-B (EGAE / LDY)
09:46AM 53.5195 -8.4516 232° Southwest 412 474 36,000  Level FlightAware ADS-B
09:47AM 53.4808 -8.5337 232° Southwest 415 478 36,000  Level FlightAware ADS-B (EGAA / BFS)
09:47AM 53.4364 -8.6278 232° Southwest 417 480 36,000  Level FlightAware ADS-B (EICK / ORK)
09:48AM 53.3974 -8.7098 231° Southwest 416 479 36,000  Level FlightAware ADS-B (EGAA / BFS)
09:48AM 53.3613 -8.7856 231° Southwest 415 478 36,000  Level FlightAware ADS-B (EICK / ORK)
09:49AM 53.3129 -8.8867 231° Southwest 413 475 36,000  Level FlightAware ADS-B (EICK / ORK)
09:50AM 53.2656 -8.9851 231° Southwest 413 475 36,000  Level FlightAware ADS-B (EICK / ORK)
09:50AM 53.2214 -9.0773 231° Southwest 414 476 36,000  Level FlightAware ADS-B (EICK / ORK)
09:51AM 53.1740 -9.1758 231° Southwest 415 478 36,000  Level FlightAware ADS-B (EICK / ORK)
09:52AM 53.1250 -9.2764 231° Southwest 412 474 36,000  Level FlightAware ADS-B (EICK / ORK)
09:52AM 53.0773 -9.3745 231° Southwest 417 480 36,000  Level FlightAware ADS-B (EICK / ORK)
09:53AM 53.0209 -9.4896 231° Southwest 414 476 36,000  Level FlightAware ADS-B (EICK / ORK)
09:54AM 52.9570 -9.6195 231° Southwest 411 473 36,000  Level FlightAware ADS-B (EICK / ORK)
09:55AM 52.9077 -9.7194 231° Southwest 412 474 36,000  Level FlightAware ADS-B (EICK / ORK)
09:55AM 52.8583 -9.8190 231° Southwest 411 473 36,000  Level FlightAware ADS-B (EICK / ORK)
09:56AM 52.7995 -9.9372 231° Southwest 409 471 36,000  Level FlightAware ADS-B (EICK / ORK)
09:57AM 52.7498 -10.0366 230° Southwest 408 470 36,000  Level FlightAware ADS-B (EICK / ORK)
09:57AM 52.7107 -10.1146 230° Southwest 408 470 36,000  Level FlightAware ADS-B (EICK / ORK)
09:58AM 52.6607 -10.2137 230° Southwest 410 472 36,000  Level FlightAware ADS-B (EICK / ORK)
09:59AM 52.6111 -10.3119 230° Southwest 410 472 36,000  Level FlightAware ADS-B (EICK / ORK)
09:59AM 52.5629 -10.4068 230° Southwest 410 472 36,000  Level FlightAware ADS-B (EICK / ORK)
10:00AM 52.5220 -10.4872 230° Southwest 408 470 36,000  Level FlightAware ADS-B (EICK / ORK)
10:00AM 52.4735 -10.5822 230° Southwest 408 470 36,000  Level FlightAware ADS-B (EICK / ORK)
10:01AM 52.4237 -10.6791 230° Southwest 409 471 36,000  Level FlightAware ADS-B (EICK / ORK)
10:02AM 52.3805 -10.7630 230° Southwest 411 473 36,000  Level FlightAware ADS-B (EICK / ORK)
10:02AM 52.3283 -10.8639 230° Southwest 413 475 36,000  Level FlightAware ADS-B (EICK / ORK)
10:04AM 52.2465 -11.0214 230° Southwest 412 474 36,000  Level FlightAware ADS-B (EICK / ORK)
11:01AM 49.0000 -20.0000 257° West 433 498 36,000  Level ETMS Enhanced Traffic Management System
11:02AM 51.7661 -22.2250 262° West  Level Estimated
11:03AM 51.7485 -22.4154 262° West  Level Estimated
11:04AM 51.7307 -22.6057 261° West  Level Estimated
11:05AM 51.7125 -22.7957 261° West  Level Estimated
11:06AM 51.6941 -22.9857 261° West  Level Estimated
11:07AM 51.6753 -23.1754 261° West  Level Estimated
11:08AM 48.8055 -21.2465 256° West 433 498 36,000  Level FlightAware Transoceanic
11:09AM 48.7767 -21.4238 256° West 433 498 36,000  Level FlightAware Transoceanic
11:10AM 48.7475 -21.6009 256° West 433 498 36,000  Level FlightAware Transoceanic
11:11AM 48.7181 -21.7778 256° West 433 498 36,000  Level FlightAware Transoceanic
11:12AM 48.6884 -21.9544 256° West 433 498 36,000  Level FlightAware Transoceanic
11:13AM 48.6585 -22.1309 256° West 433 498 36,000  Level FlightAware Transoceanic
11:14AM 48.6283 -22.3071 255° West 433 498 36,000  Level FlightAware Transoceanic
11:15AM 48.5978 -22.4831 255° West 433 498 36,000  Level FlightAware Transoceanic
11:16AM 48.5670 -22.6589 255° West 433 498 36,000  Level FlightAware Transoceanic
11:17AM 48.5360 -22.8345 255° West 433 498 36,000  Level FlightAware Transoceanic
11:18AM 48.5047 -23.0099 255° West 433 498 36,000  Level FlightAware Transoceanic
11:19AM 48.4731 -23.1851 255° West 433 498 36,000  Level FlightAware Transoceanic
11:20AM 48.4413 -23.3600 255° West 433 498 36,000  Level FlightAware Transoceanic
11:21AM 48.4092 -23.5347 254° West 433 498 36,000  Level FlightAware Transoceanic
11:22AM 48.3768 -23.7093 254° West 433 498 36,000  Level FlightAware Transoceanic
11:23AM 48.3442 -23.8835 254° West 433 498 36,000  Level FlightAware Transoceanic
11:24AM 48.3113 -24.0576 254° West 433 498 36,000  Level FlightAware Transoceanic
11:25AM 48.2782 -24.2314 254° West 433 498 36,000  Level FlightAware Transoceanic
11:26AM 48.2448 -24.4050 254° West 433 498 36,000  Level FlightAware Transoceanic
11:27AM 48.2111 -24.5784 254° West 433 498 36,000  Level FlightAware Transoceanic
11:28AM 48.1772 -24.7516 254° West 433 498 36,000  Level FlightAware Transoceanic
11:29AM 48.1430 -24.9245 253° West 433 498 36,000  Level FlightAware Transoceanic
11:30AM 48.1086 -25.0972 253° West 433 498 36,000  Level FlightAware Transoceanic
11:31AM 48.0739 -25.2696 253° West 433 498 36,000  Level FlightAware Transoceanic
11:32AM 48.0389 -25.4419 253° West 433 498 36,000  Level FlightAware Transoceanic
11:33AM 48.0037 -25.6138 253° West 433 498 36,000  Level FlightAware Transoceanic
11:34AM 47.9682 -25.7856 253° West 433 498 36,000  Level FlightAware Transoceanic
11:35AM 47.9325 -25.9571 253° West 433 498 36,000  Level FlightAware Transoceanic
11:36AM 47.8965 -26.1284 253° West 433 498 36,000  Level FlightAware Transoceanic
11:37AM 47.8602 -26.2994 252° West 433 498 36,000  Level FlightAware Transoceanic
11:38AM 47.8237 -26.4702 252° West 433 498 36,000  Level FlightAware Transoceanic
11:39AM 47.7870 -26.6408 252° West 433 498 36,000  Level FlightAware Transoceanic
11:40AM 47.7500 -26.8111 252° West 433 498 36,000  Level FlightAware Transoceanic
11:41AM 47.7127 -26.9812 252° West 433 498 36,000  Level FlightAware Transoceanic
11:42AM 47.6753 -27.1510 252° West 433 498 36,000  Level FlightAware Transoceanic
11:43AM 47.6375 -27.3206 252° West 433 498 36,000  Level FlightAware Transoceanic
11:44AM 47.5995 -27.4900 252° West 433 498 36,000  Level FlightAware Transoceanic
11:45AM 47.5612 -27.6590 251° West 433 498 36,000  Level FlightAware Transoceanic
11:46AM 47.5228 -27.8279 251° West 433 498 36,000  Level FlightAware Transoceanic
11:47AM 47.4840 -27.9965 251° West 433 498 36,000  Level FlightAware Transoceanic
11:48AM 47.4450 -28.1649 251° West 433 498 36,000  Level FlightAware Transoceanic
11:49AM 47.4058 -28.3330 251° West 433 498 36,000  Level FlightAware Transoceanic
11:50AM 47.3663 -28.5008 251° West 433 498 36,000  Level FlightAware Transoceanic
11:51AM 47.3265 -28.6684 251° West 433 498 36,000  Level FlightAware Transoceanic
11:52AM 47.2866 -28.8357 251° West 433 498 36,000  Level FlightAware Transoceanic
11:53AM 47.2464 -29.0028 250° West 433 498 36,000  Level FlightAware Transoceanic
11:54AM 47.2059 -29.1697 250° West 433 498 36,000  Level FlightAware Transoceanic
11:55AM 47.1652 -29.3362 250° West 433 498 36,000  Level FlightAware Transoceanic
11:56AM 47.1243 -29.5026 250° West 433 498 36,000  Level FlightAware Transoceanic
11:57AM 47.0831 -29.6686 250° West 433 498 36,000  Level FlightAware Transoceanic
11:58AM 47.0417 -29.8344 250° West 433 498 36,000  Level FlightAware Transoceanic
11:59AM 47.0186 -30.0060 259° West  Level Estimated
12:00PM 46.9953 -30.1773 259° West  Level Estimated
12:01PM 46.9718 -30.3485 259° West  Level Estimated
12:02PM 46.9479 -30.5196 259° West  Level Estimated
12:03PM 46.9239 -30.6904 258° West  Level Estimated
12:04PM 46.8996 -30.8612 258° West  Level Estimated
12:05PM 46.8750 -31.0318 258° West  Level Estimated
12:06PM 46.8502 -31.2022 258° West  Level Estimated
12:07PM 46.8251 -31.3725 258° West  Level Estimated
12:08PM 46.7998 -31.5426 258° West  Level Estimated
12:09PM 46.7742 -31.7125 258° West  Level Estimated
12:10PM 46.7483 -31.8823 258° West  Level Estimated
12:11PM 46.7223 -32.0519 257° West  Level Estimated
12:12PM 46.6959 -32.2214 257° West  Level Estimated
12:13PM 46.6693 -32.3907 257° West  Level Estimated
12:14PM 46.6425 -32.5598 257° West  Level Estimated
12:15PM 46.6154 -32.7288 257° West  Level Estimated
12:16PM 46.5881 -32.8976 257° West  Level Estimated
12:17PM 46.5605 -33.0662 257° West  Level Estimated
12:18PM 46.5327 -33.2346 257° West  Level Estimated
12:19PM 46.5046 -33.4029 256° West  Level Estimated
12:19PM 47.0000 -30.0000 244° Southwest 429 494 36,000  Level ETMS Enhanced Traffic Management System
01:08PM 43.0000 -40.0000 245° Southwest 425 489 36,000  Level New York Oceanic (ODAPS)
01:10PM 42.8833 -40.3500 245° Southwest 420 483 36,000  Level New York Oceanic (ODAPS)
01:20PM 42.4333 -41.6500 244° Southwest 413 475 36,000  Level New York Oceanic (ODAPS)
01:29PM 41.9667 -42.9167 243° Southwest 416 479 36,000  Level New York Oceanic (ODAPS)
01:39PM 41.4833 -44.2167 243° Southwest 422 486 36,000  Level New York Oceanic (ODAPS)
01:48PM 40.9500 -45.5333 242° Southwest 424 488 36,000  Level New York Oceanic (ODAPS)
01:58PM 40.4167 -46.8167 241° Southwest 420 483 36,000  Level New York Oceanic (ODAPS)
02:08PM 39.8833 -48.0667 240° Southwest 410 472 36,000  Level New York Oceanic (ODAPS)
02:17PM 39.3333 -49.3000 239° Southwest 419 482 36,000  Level New York Oceanic (ODAPS)
02:23PM 39.0000 -50.0000 234° Southwest 437 503 36,000  Level New York Oceanic (ODAPS)
02:27PM 38.7000 -50.5167 234° Southwest 436 502 36,000  Level New York Oceanic (ODAPS)
02:36PM 38.0333 -51.7000 233° Southwest 434 499 36,000  Level New York Oceanic (ODAPS)
02:46PM 37.3500 -52.8500 233° Southwest 435 501 36,000  Level New York Oceanic (ODAPS)
02:56PM 36.6167 -54.0333 232° Southwest 444 511 36,000  Level New York Oceanic (ODAPS)
03:04PM 36.0000 -55.0000 245° Southwest 433 498 36,000  Level New York Oceanic (ODAPS)
03:05PM 35.9167 -55.2333 245° Southwest 430 495 36,000  Level New York Oceanic (ODAPS)
03:15PM 35.4333 -56.5000 245° Southwest 428 493 36,000  Level New York Oceanic (ODAPS)
03:24PM 34.9333 -57.7500 244° Southwest 425 489 36,000  Level New York Oceanic (ODAPS)
03:34PM 34.4333 -58.9667 243° Southwest 422 486 36,000  Level New York Oceanic (ODAPS)
03:42PM 34.0000 -60.0000 252° West 427 491 36,000  Level New York Oceanic (ODAPS)
03:46PM 33.8667 -60.5167 251° West 423 487 36,000  Level New York Oceanic (ODAPS)
03:50PM 33.7064 -61.0750 251° West 446 513 36,000  Level New York Center
03:51PM 33.6681 -61.1878 251° West 427 491 36,000  Level FlightAware Transoceanic
03:51PM 33.6692 -61.2064 251° West 431 496 36,000  Level New York Center
03:52PM 33.6549 -61.2423 250° West 423 487 36,000  Level FlightAware Transoceanic
03:52PM 33.6353 -61.3300 252° West 431 496 36,000  Level New York Center
03:53PM 33.6192 -61.3629 250° West 423 487 36,000  Level FlightAware Transoceanic
03:53PM 33.5883 -61.4750 249° West 436 502 36,000  Level New York Center
03:54PM 33.5833 -61.4833 251° West 423 487 36,000  Level FlightAware Transoceanic
03:54PM 33.5553 -61.6106 254° West 436 502 36,000  Level New York Center
03:55PM 33.5186 -61.7317 250° West 436 502 36,000  Level New York Center
03:56PM 33.4775 -61.8756 251° West 431 496 36,000  Level New York Center
03:57PM 33.4361 -61.9917 247° West 424 488 36,000  Level New York Center
03:58PM 33.3992 -62.1422 254° West 432 497 36,000  Level New York Center
03:59PM 33.3589 -62.2758 250° West 432 497 36,000  Level New York Center
04:00PM 33.3214 -62.3936 249° West 438 504 36,000  Level New York Center
04:01PM 33.2797 -62.5419 251° West 438 504 36,000  Level New York Center
04:02PM 33.2386 -62.6725 249° West 438 504 36,000  Level New York Center
04:03PM 33.2053 -62.7947 252° West 438 504 36,000  Level New York Center
04:04PM 33.1567 -62.9406 248° West 438 504 36,000  Level New York Center
04:05PM 33.1217 -63.0753 253° West 433 498 36,000  Level New York Center
04:06PM 33.0803 -63.2078 250° West 433 498 36,000  Level New York Center
04:07PM 33.0383 -63.3378 249° West 433 498 36,000  Level New York Center
04:08PM 33.0022 -63.4597 251° West 433 498 36,000  Level New York Center
04:09PM 32.9589 -63.6044 250° West 433 498 36,000  Level New York Center
04:10PM 32.9189 -63.7386 250° West 433 498 36,100 300 Climbing New York Center
04:11PM 32.8800 -63.8556 248° West 433 498 36,600 420 Climbing New York Center
04:12PM 32.8361 -63.9997 250° West 433 498 37,000 180 Climbing New York Center
04:13PM 32.7978 -64.1289 251° West 426 490 37,000  Level New York Center
04:14PM 32.7550 -64.2603 249° West 426 490 37,000  Level New York Center
04:15PM 32.7161 -64.3892 250° West 420 483 37,000  Level New York Center
04:16PM 32.6786 -64.5078 249° West 425 489 37,000  Level New York Center
04:17PM 32.6339 -64.6489 249° West 425 489 37,000  Level New York Center
04:18PM 32.5928 -64.7822 250° West 420 483 37,000  Level New York Center
04:19PM 32.5514 -64.9131 249° West 425 489 37,000  Level New York Center
04:20PM 32.5133 -65.0314 249° West 425 489 37,000  Level New York Center
04:21PM 32.4681 -65.1719 249° West 425 489 37,000  Level New York Center
04:22PM 32.4275 -65.2878 247° West 425 489 37,000  Level New York Center
04:23PM 32.3800 -65.4331 249° West 425 489 37,000  Level New York Center
04:24PM 32.3397 -65.5583 249° West 420 483 37,000  Level New York Center
04:25PM 32.3031 -65.6758 250° West 420 483 37,000  Level New York Center
04:26PM 32.2569 -65.8208 249° West 426 490 37,000  Level New York Center
04:27PM 32.2103 -65.9508 247° West 426 490 37,000  Level New York Center
04:28PM 32.1733 -66.0681 250° West 426 490 37,000  Level New York Center
04:29PM 32.1247 -66.2103 248° West 426 490 37,000  Level New York Center
04:30PM 32.0853 -66.3275 248° West 426 490 37,000  Level New York Center
04:31PM 32.0364 -66.4669 248° West 421 484 37,000  Level New York Center
04:32PM 31.9972 -66.5958 250° West 426 490 37,000  Level New York Center
04:33PM 31.9553 -66.7103 247° West 420 483 37,000  Level New York Center
04:34PM 31.9100 -66.8517 249° West 420 483 37,000  Level New York Center
04:35PM 31.8681 -66.9781 249° West 420 483 37,000  Level New York Center
04:36PM 31.8239 -67.0897 245° Southwest 420 483 37,000  Level New York Center
04:37PM 31.7781 -67.2331 249° West 425 489 37,000  Level New York Center
04:38PM 31.7319 -67.3617 247° West 425 489 37,000  Level New York Center
04:39PM 31.6914 -67.4753 247° West 420 483 37,000  Level New York Center
04:40PM 31.6472 -67.6181 250° West 425 489 37,000  Level New York Center
04:41PM 31.6086 -67.7314 248° West 420 483 37,000  Level New York Center
04:42PM 31.5600 -67.8717 248° West 420 483 37,000 60 Level New York Center
04:54PM 30.9000 -69.2333 241° Southwest 419 482 37,900  Climbing New York Oceanic (ODAPS)
05:00PM 30.5167 -70.0167 242° Southwest 414 476 38,000  Climbing New York Oceanic (ODAPS)
05:03PM 30.4000 -70.2667 249° West 418 481 38,000  Level New York Oceanic (ODAPS)
05:10PM 30.0833 -71.1833 249° West 415 478 38,000  Level New York Oceanic (ODAPS)
05:20PM 29.6833 -72.3500 248° West 410 472 38,000  Level New York Oceanic (ODAPS)
05:29PM 29.2667 -73.5000 248° West 402 463 38,000  Level New York Oceanic (ODAPS)
05:36PM 29.0000 -74.2500 222° Southwest 431 496 38,000  Level New York Oceanic (ODAPS)
05:39PM 28.7167 -74.5333 222° Southwest 417 480 38,000  Level New York Oceanic (ODAPS)
05:48PM 27.9725 -75.2947 213° Southwest 460 529 38,000  Level Miami Center
05:49PM 27.8333 -75.4167 213° Southwest 417 480 38,000  Level FlightAware Transoceanic
05:49PM 27.8858 -75.3828 222° Southwest 439 505 38,000  Level Miami Center
05:50PM 27.7338 -75.4910 213° Southwest 417 480 38,000  Level FlightAware Transoceanic
05:50PM 27.7906 -75.4617 216° Southwest 425 489 38,000  Level Miami Center
05:51PM 27.6343 -75.5653 213° Southwest 417 480 38,000  Level FlightAware Transoceanic
05:51PM 27.6889 -75.5308 211° Southwest 430 495 38,000  Level Miami Center
05:52PM 27.5347 -75.6394 213° Southwest 417 480 38,000  Level FlightAware Transoceanic
05:52PM 27.6019 -75.6208 223° Southwest 430 495 38,000  Level Miami Center
05:53PM 27.4351 -75.7133 213° Southwest 417 480 38,000  Level FlightAware Transoceanic
05:53PM 27.5294 -75.6872 219° Southwest 430 495 38,000  Level Miami Center
05:54PM 27.4342 -75.7983 226° Southwest 424 488 38,000  Level Miami Center
05:55PM 27.3533 -75.8925 226° Southwest 419 482 38,000  Level Miami Center
05:56PM 27.2703 -75.9822 224° Southwest 419 482 38,000  Level Miami Center
05:57PM 27.1894 -76.0739 225° Southwest 414 476 38,000  Level Miami Center
05:58PM 27.1086 -76.1700 227° Southwest 414 476 38,000  Level Miami Center
05:59PM 27.0253 -76.2639 225° Southwest 414 476 38,000  Level Miami Center
06:00PM 26.9442 -76.3600 227° Southwest 414 476 38,000  Level Miami Center
06:01PM 26.8631 -76.4511 225° Southwest 409 471 38,000  Level Miami Center
06:02PM 26.7778 -76.5375 222° Southwest 414 476 38,000  Level Miami Center
06:03PM 26.6983 -76.6353 228° Southwest 420 483 38,000  Level Miami Center
06:04PM 26.6128 -76.7286 224° Southwest 420 483 38,000  Level Miami Center
06:05PM 26.5356 -76.8378 232° Southwest 432 497 38,000  Level Miami Center
06:06PM 26.4458 -76.9122 217° Southwest 425 489 38,000  Level Miami Center
06:07PM 26.3642 -77.0072 226° Southwest 420 483 38,000  Level Miami Center
06:08PM 26.2828 -77.0975 225° Southwest 420 483 38,000  Level Miami Center
06:09PM 26.2011 -77.1922 226° Southwest 420 483 38,000  Level Miami Center
06:10PM 26.1150 -77.2822 223° Southwest 420 483 38,000  Level Miami Center
06:11PM 26.0333 -77.3744 225° Southwest 420 483 38,000  Level Miami Center
06:12PM 25.9472 -77.4667 224° Southwest 420 483 38,000  Level Miami Center
06:13PM 25.8739 -77.5494 225° Southwest 426 490 38,000  Level Miami Center
06:14PM 25.7897 -77.6411 224° Southwest 426 490 38,000  Level Miami Center
06:15PM 25.7056 -77.7328 224° Southwest 426 490 38,000  Level Miami Center
06:16PM 25.6214 -77.8244 224° Southwest 426 490 38,000  Level Miami Center
06:17PM 25.5353 -77.9183 225° Southwest 426 490 38,000  Level Miami Center
06:18PM 25.4531 -78.0094 225° Southwest 426 490 38,000  Level Miami Center
06:19PM 25.3667 -78.1008 224° Southwest 431 496 38,000  Level Miami Center
06:20PM 25.2822 -78.1942 225° Southwest 431 496 38,000  Level Miami Center
06:21PM 25.1978 -78.2850 224° Southwest 431 496 38,000  Level Miami Center
06:22PM 25.1133 -78.3758 224° Southwest 431 496 38,000  Level Miami Center
06:23PM 25.0267 -78.4689 224° Southwest 431 496 38,000  Level Miami Center
06:24PM 24.9419 -78.5594 224° Southwest 431 496 38,000  Level Miami Center
06:25PM 24.8553 -78.6497 223° Southwest 431 496 38,000  Level Miami Center
06:26PM 24.7706 -78.7400 224° Southwest 431 496 38,000  Level Miami Center
06:27PM 24.6858 -78.8325 225° Southwest 431 496 38,000  Level Miami Center
06:28PM 24.6031 -78.9228 225° Southwest 431 496 38,000  Level Miami Center
06:29PM 24.5161 -79.0150 224° Southwest 436 502 38,000  Level Miami Center
06:30PM 24.4292 -79.1047 223° Southwest 431 496 38,000  Level Miami Center
06:31PM 24.3419 -79.1944 223° Southwest 436 502 38,000  Level Miami Center
06:32PM 24.2486 -79.2953 225° Southwest 431 496 38,000  Level Miami Center
06:33PM 24.1633 -79.3847 224° Southwest 431 496 38,000  Level Miami Center
06:34PM 24.0803 -79.4761 225° Southwest 431 496 38,000  Level Miami Center
06:35PM 24.0158 -79.5842 237° Southwest 431 496 38,000  Level Miami Center
06:36PM 23.9521 -79.6962 238° Southwest  Level FlightAware Approximate
06:43PM 23.5121 -80.4924 241° Southwest  Level FlightAware Approximate
06:44PM 23.4562 -80.6089 243° Southwest  Level FlightAware Approximate
06:45PM 23.4020 -80.7263 243° Southwest  Level FlightAware Approximate
06:46PM 23.3424 -80.8404 239° Southwest  Level FlightAware Approximate
06:47PM 23.2801 -80.9528 239° Southwest  Level FlightAware Approximate
06:48PM 23.2176 -81.0650 239° Southwest  Level FlightAware Approximate
06:49PM 23.1581 -81.1792 241° Southwest  Level FlightAware Approximate
06:50PM 23.0986 -81.2933 240° Southwest  Level FlightAware Approximate
06:51PM 23.0390 -81.4072 240° Southwest  Level FlightAware Approximate
06:52PM 23.0153 -81.5318 264° West  Level FlightAware Approximate
06:53PM 23.0035 -81.6621 264° West  Level FlightAware Approximate
06:54PM 23.0000 -81.7930 270° West  Level FlightAware Approximate
06:55PM 23.0000 -81.9240 270° West  Level FlightAware Approximate
06:56PM 22.9890 -82.0544 264° West  Level FlightAware Approximate
06:57PM 22.9833 -82.1851 270° West  Level FlightAware Approximate
06:58PM 22.9807 -82.3158 260° West  Level FlightAware Approximate
06:59PM 22.9667 -82.4000 260° West  Level FlightAware Approximate
07:00PM 22.9891 -82.4091 260° West  Level Estimated
07:01PM 22.9891 -82.4091 260° West  Level Estimated
07:02PM 22.9891 -82.4091 260° West  Level Estimated
07:03PM 22.9891 -82.4091 260° West  Level Estimated
07:04PM 22.9891 -82.4091 260° West  Level Estimated
07:05PM 22.9891 -82.4091 260° West  Level Estimated
07:06PM 22.9891 -82.4091 260° West  Level Estimated
07:07PM 22.9891 -82.4091 260° West  Level Estimated
07:08PM 22.9891 -82.4091 260° West  Level Estimated
07:09PM 22.9891 -82.4091 260° West  Level Estimated
07:10PM 22.9891 -82.4091 260° West  Level Estimated
07:11PM 22.9891 -82.4091 260° West  Level Estimated
07:12PM 22.9891 -82.4091 260° West  Level Estimated
07:13PM 22.9891 -82.4091 260° West  Level Estimated
07:14PM 22.9891 -82.4091 260° West  Level Estimated
07:15PM 22.9891 -82.4091 260° West  Level Estimated
07:16PM 22.9891 -82.4091 260° West  Level Estimated
07:17PM 22.9891 -82.4091 260° West  Level Estimated
07:18PM 22.9891 -82.4091 260° West  Level Estimated
07:19PM 22.9891 -82.4091 260° West  Level Estimated
07:20PM 22.9891 -82.4091 260° West  Level Estimated
07:21PM 22.9891 -82.4091 260° West  Level Estimated